createdAt,value
2018-12-05T00:01:33.997Z,2.62
2018-12-05T00:06:36.578Z,2.70
2018-12-05T00:11:39.296Z,2.45
2018-12-05T00:16:41.977Z,2.65
2018-12-05T00:21:44.638Z,2.73
2018-12-05T00:26:47.848Z,2.77
2018-12-05T00:31:50.466Z,2.43
2018-12-05T00:36:53.430Z,2.47
2018-12-05T00:41:56.508Z,2.90
2018-12-05T00:46:59.819Z,2.95
2018-12-05T00:52:02.474Z,2.80
2018-12-05T00:57:05.244Z,2.60
2018-12-05T01:02:08.856Z,2.80
2018-12-05T01:07:11.631Z,2.77
2018-12-05T01:12:14.274Z,2.87
2018-12-05T01:17:17.580Z,2.70
2018-12-05T01:22:20.232Z,2.97
2018-12-05T01:27:22.960Z,2.80
2018-12-05T01:32:26.327Z,2.43
2018-12-05T01:37:29.050Z,2.93
2018-12-05T01:42:31.641Z,2.93
2018-12-05T01:47:34.249Z,2.83
2018-12-05T01:52:37.041Z,2.57
2018-12-05T01:57:39.787Z,2.87
2018-12-05T02:02:42.543Z,2.70
2018-12-05T02:07:45.233Z,2.53
2018-12-05T02:12:47.838Z,2.60
2018-12-05T02:17:50.584Z,2.77
2018-12-05T02:22:54.049Z,2.43
2018-12-05T02:27:56.857Z,2.80
2018-12-05T02:32:59.653Z,2.73
2018-12-05T02:38:02.293Z,2.67
2018-12-05T02:43:05.149Z,2.93
2018-12-05T02:48:07.837Z,3.20
2018-12-05T02:53:10.632Z,2.37
2018-12-05T02:58:13.438Z,3.00
2018-12-05T03:03:16.311Z,2.67
2018-12-05T03:08:19.111Z,3.00
2018-12-05T03:13:21.847Z,3.10
2018-12-05T03:18:24.534Z,2.63
2018-12-05T03:23:27.912Z,2.53
2018-12-05T03:28:30.522Z,2.90
2018-12-05T03:33:34.028Z,2.50
2018-12-05T03:38:37.772Z,2.90
2018-12-05T03:43:40.608Z,2.80
2018-12-05T03:48:43.396Z,2.90
2018-12-05T03:53:46.181Z,3.33
2018-12-05T03:58:48.980Z,2.70
2018-12-05T04:03:51.777Z,2.70
2018-12-05T04:08:54.479Z,3.20
2018-12-05T04:13:57.063Z,3.50
2018-12-05T04:18:59.874Z,2.70
2018-12-05T04:24:02.530Z,3.00
2018-12-05T04:29:05.214Z,2.90
2018-12-05T04:34:08.386Z,2.97
2018-12-05T04:39:10.980Z,2.80
2018-12-05T04:44:13.604Z,2.53
2018-12-05T04:49:16.981Z,3.37
2018-12-05T04:54:20.701Z,2.97
2018-12-05T04:59:23.370Z,3.30
2018-12-05T05:04:26.007Z,3.20
2018-12-05T05:09:28.620Z,2.87
2018-12-05T05:14:31.266Z,2.83
2018-12-05T05:19:33.929Z,2.77
2018-12-05T05:24:36.717Z,2.77
2018-12-05T05:29:39.285Z,3.10
2018-12-05T05:34:42.097Z,2.77
2018-12-05T05:39:45.346Z,3.03
2018-12-05T05:44:48.033Z,3.20
2018-12-05T05:49:50.565Z,2.97
2018-12-05T05:54:53.096Z,3.50
2018-12-05T05:59:55.814Z,3.40
2018-12-05T06:04:58.653Z,3.20
2018-12-05T06:10:01.207Z,3.93
2018-12-05T06:15:04.757Z,4.17
2018-12-05T06:20:07.388Z,3.63
2018-12-05T06:25:09.996Z,3.50
2018-12-05T06:30:13.161Z,3.90
2018-12-05T06:35:15.732Z,3.97
2018-12-05T06:40:18.394Z,3.80
2018-12-05T06:45:21.795Z,3.33
2018-12-05T06:50:24.325Z,4.03
2018-12-05T06:55:26.892Z,3.83
2018-12-05T07:00:29.571Z,3.60
2018-12-05T07:05:32.938Z,3.67
2018-12-05T07:10:35.668Z,3.40
2018-12-05T07:15:38.205Z,4.20
2018-12-05T07:20:40.789Z,3.70
2018-12-05T07:25:43.349Z,5.03
2018-12-05T07:30:45.988Z,4.43
2018-12-05T07:35:48.581Z,3.97
2018-12-05T07:40:51.217Z,4.23
2018-12-05T07:45:53.803Z,4.30
2018-12-05T07:50:56.395Z,4.23
2018-12-05T07:55:58.959Z,4.90
2018-12-05T08:01:01.579Z,4.77
2018-12-05T08:06:04.171Z,4.60
2018-12-05T08:11:06.803Z,4.43
2018-12-05T08:16:09.380Z,4.57
2018-12-05T08:21:12.027Z,4.53
2018-12-05T08:26:14.714Z,4.60
2018-12-05T08:31:17.261Z,4.30
2018-12-05T08:36:19.838Z,4.30
2018-12-05T08:41:22.463Z,4.93
2018-12-05T08:46:25.093Z,4.73
2018-12-05T08:51:27.672Z,4.27
2018-12-05T08:56:30.239Z,3.90
2018-12-05T09:01:32.815Z,4.10
2018-12-05T09:06:35.408Z,3.87
2018-12-05T09:11:38.004Z,3.80
2018-12-05T09:16:40.668Z,3.93
2018-12-05T09:21:43.260Z,3.30
2018-12-05T09:26:46.161Z,3.93
2018-12-05T09:31:49.166Z,3.97
2018-12-05T09:36:52.274Z,3.57
2018-12-05T09:41:55.089Z,3.50
2018-12-05T09:46:57.827Z,3.90
2018-12-05T09:52:00.439Z,3.90
2018-12-05T09:57:03.117Z,4.17
2018-12-05T10:02:05.738Z,4.20
2018-12-05T10:07:08.331Z,3.80
2018-12-05T10:12:11.826Z,4.43
2018-12-05T10:17:14.780Z,4.17
2018-12-05T10:22:17.344Z,3.60
2018-12-05T10:27:19.884Z,3.70
2018-12-05T10:32:22.451Z,3.80
2018-12-05T10:37:25.073Z,3.42
2018-12-05T10:42:27.702Z,3.70
2018-12-05T10:47:30.260Z,3.33
2018-12-05T10:52:33.059Z,3.20
2018-12-05T10:57:35.614Z,3.70
2018-12-05T11:02:44.763Z,3.47
2018-12-05T11:07:52.980Z,3.80
2018-12-05T11:13:01.166Z,3.57
2018-12-05T11:18:10.298Z,3.40
2018-12-05T11:23:18.449Z,3.30
2018-12-05T11:28:21.174Z,3.50
2018-12-05T11:33:24.525Z,3.43
2018-12-05T11:38:28.146Z,4.12
2018-12-05T11:43:31.585Z,3.57
2018-12-05T11:48:34.178Z,4.17
2018-12-05T11:53:36.743Z,3.77
2018-12-05T11:58:39.441Z,3.83
2018-12-05T12:03:42.889Z,3.13
2018-12-05T12:08:45.555Z,3.37
2018-12-05T12:13:48.169Z,3.33
2018-12-05T12:18:50.797Z,3.83
2018-12-05T12:23:53.414Z,3.47
2018-12-05T12:28:56.095Z,3.00
2018-12-05T12:33:59.310Z,2.47
2018-12-05T12:39:01.881Z,2.80
2018-12-05T12:44:04.509Z,2.60
2018-12-05T12:49:08.066Z,2.27
2018-12-05T12:54:10.712Z,2.40
2018-12-05T12:59:13.350Z,2.50
2018-12-05T13:04:16.169Z,2.40
2018-12-05T13:09:18.922Z,2.63
2018-12-05T13:14:21.619Z,2.10
2018-12-05T13:19:24.474Z,2.23
2018-12-05T13:24:27.814Z,2.50
2018-12-05T13:29:30.410Z,2.20
2018-12-05T13:34:32.969Z,2.60
2018-12-05T13:39:35.650Z,2.70
2018-12-05T13:44:38.206Z,3.00
2018-12-05T13:49:40.749Z,3.13
2018-12-05T13:54:44.159Z,3.10
2018-12-05T13:59:46.776Z,3.40
2018-12-05T14:04:49.380Z,3.50
2018-12-05T14:09:52.136Z,2.87
2018-12-05T14:14:55.957Z,3.00
2018-12-05T14:19:59.451Z,2.60
2018-12-05T14:25:02.185Z,2.60
2018-12-05T14:30:07.074Z,2.03
2018-12-05T14:35:09.657Z,2.27
2018-12-05T14:40:12.205Z,2.30
2018-12-05T14:45:14.771Z,2.00
2018-12-05T14:50:17.516Z,2.37
2018-12-05T14:55:20.137Z,2.07
2018-12-05T15:00:22.680Z,2.23
2018-12-05T15:05:26.050Z,2.90
2018-12-05T15:10:28.616Z,3.23
2018-12-05T15:15:31.169Z,3.40
2018-12-05T15:20:33.878Z,3.27
2018-12-05T15:25:37.014Z,3.43
2018-12-05T15:30:40.531Z,3.50
2018-12-05T15:35:43.352Z,3.87
2018-12-05T15:40:45.219Z,3.70
2018-12-05T15:45:48.382Z,4.43
2018-12-05T15:50:50.974Z,4.27
2018-12-05T15:55:53.519Z,4.20
2018-12-05T16:00:56.138Z,4.23
2018-12-05T16:05:58.709Z,3.80
2018-12-05T16:11:01.262Z,4.23
2018-12-05T16:16:03.918Z,3.83
2018-12-05T16:21:06.588Z,3.72
2018-12-05T16:26:10.813Z,3.57
2018-12-05T16:31:13.713Z,4.20
2018-12-05T16:36:16.362Z,4.33
2018-12-05T16:41:19.076Z,4.57
2018-12-05T16:46:21.629Z,4.50
2018-12-05T16:51:24.259Z,4.53
2018-12-05T16:56:26.824Z,4.50
2018-12-05T17:01:29.418Z,4.80
2018-12-05T17:06:32.092Z,4.57
2018-12-05T17:11:34.697Z,4.57
2018-12-05T17:16:37.374Z,4.90
2018-12-05T17:21:40.059Z,5.30
2018-12-05T17:26:42.765Z,4.70
2018-12-05T17:31:46.444Z,5.00
2018-12-05T17:36:49.010Z,5.20
2018-12-05T17:41:51.545Z,5.03
2018-12-05T17:46:54.858Z,4.93
2018-12-05T17:51:57.517Z,5.90
2018-12-05T17:57:00.097Z,6.00
2018-12-05T18:02:02.641Z,5.80
2018-12-05T18:07:06.840Z,5.63
2018-12-05T18:12:09.682Z,6.60
2018-12-05T18:17:12.314Z,5.40
2018-12-05T18:22:15.697Z,6.20
2018-12-05T18:27:18.315Z,5.50
2018-12-05T18:32:20.911Z,5.90
2018-12-05T18:37:23.548Z,5.40
2018-12-05T18:42:26.153Z,6.13
2018-12-05T18:47:28.728Z,5.57
2018-12-05T18:52:31.345Z,5.73
2018-12-05T18:57:33.909Z,6.10
2018-12-05T19:02:36.503Z,5.90
2018-12-05T19:07:39.119Z,6.77
2018-12-05T19:12:41.719Z,6.80
2018-12-05T19:17:44.356Z,7.00
2018-12-05T19:22:46.923Z,7.07
2018-12-05T19:27:49.562Z,7.03
2018-12-05T19:32:52.167Z,5.70
2018-12-05T19:37:55.599Z,6.23
2018-12-05T19:42:58.210Z,6.40
2018-12-05T19:48:00.834Z,6.67
2018-12-05T19:53:03.393Z,6.47
2018-12-05T19:58:06.064Z,6.73
2018-12-05T20:03:09.419Z,6.20
2018-12-05T20:08:12.613Z,6.20
2018-12-05T20:13:15.229Z,7.10
2018-12-05T20:18:19.348Z,6.87
2018-12-05T20:23:22.639Z,7.43
2018-12-05T20:28:25.381Z,6.27
2018-12-05T20:33:28.476Z,6.67
2018-12-05T20:38:31.313Z,7.67
2018-12-05T20:43:33.983Z,7.67
2018-12-05T20:48:36.558Z,8.00
2018-12-05T20:53:40.067Z,7.30
2018-12-05T20:58:42.721Z,8.20
2018-12-05T21:03:45.766Z,8.43
2018-12-05T21:08:48.443Z,7.77
2018-12-05T21:13:51.088Z,8.10
2018-12-05T21:18:54.161Z,8.27
2018-12-05T21:23:57.321Z,8.10
2018-12-05T21:28:59.940Z,8.30
2018-12-05T21:34:02.513Z,8.10
2018-12-05T21:39:06.972Z,19.47
2018-12-05T21:44:09.606Z,8.10
2018-12-05T21:49:12.238Z,8.23
2018-12-05T21:54:14.964Z,8.20
2018-12-05T21:59:17.589Z,8.40
2018-12-05T22:04:20.233Z,8.00
2018-12-05T22:09:22.809Z,7.60
2018-12-05T22:14:25.637Z,8.43
2018-12-05T22:19:28.273Z,8.50
2018-12-05T22:24:30.890Z,8.43
2018-12-05T22:29:33.597Z,8.27
2018-12-05T22:34:36.453Z,8.40
2018-12-05T22:39:39.102Z,8.53
2018-12-05T22:44:41.738Z,8.50
2018-12-05T22:49:44.335Z,8.03
2018-12-05T22:54:46.881Z,8.75
2018-12-05T22:59:49.482Z,8.83
2018-12-05T23:04:52.026Z,8.27
2018-12-05T23:09:54.658Z,7.90
2018-12-05T23:14:57.201Z,7.13
2018-12-05T23:19:59.927Z,7.83
2018-12-05T23:25:02.933Z,6.87
2018-12-05T23:30:06.361Z,7.73
2018-12-05T23:35:09.130Z,7.47
2018-12-05T23:40:11.785Z,6.70
2018-12-05T23:45:14.600Z,6.73
2018-12-05T23:50:17.368Z,6.67
2018-12-05T23:55:19.924Z,19.97
